Time;durP1;ratioP1;P1;durP2;ratioP2;P2;SDS_P1;SDS_P2;PMS_P1;PMS_P2;Temp;Humidity;BMP_temperature;BMP_pressure;BME280_temperature;BME280_humidity;BME280_pressure;Samples;Min_cycle;Max_cycle;Signal;HPM_P1;HPM_P2
2023/11/07 00:00:23;;;;;;;58.70;44.17;;;10.60;99.90;;;;;;4993456;28;20037;-71
2023/11/07 00:02:53;;;;;;;59.70;44.80;;;10.60;99.90;;;;;;4993204;28;20041;-72
2023/11/07 00:05:20;;;;;;;58.90;46.28;;;10.60;99.90;;;;;;4992240;28;20038;-72
2023/11/07 00:07:46;;;;;;;52.17;45.28;;;10.60;99.90;;;;;;5012311;28;20231;-71
2023/11/07 00:10:12;;;;;;;49.25;43.97;;;10.60;99.90;;;;;;5013363;28;20501;-71
2023/11/07 00:12:38;;;;;;;42.22;36.08;;;10.60;99.90;;;;;;5013609;28;20026;-71
2023/11/07 00:15:05;;;;;;;39.00;30.13;;;10.50;99.90;;;;;;5012975;28;20398;-72
2023/11/07 00:17:31;;;;;;;34.70;31.13;;;10.50;99.90;;;;;;5010874;28;20038;-71
2023/11/07 00:19:57;;;;;;;28.02;24.85;;;10.40;99.90;;;;;;4984853;28;20065;-71
2023/11/07 00:22:23;;;;;;;27.38;24.48;;;10.40;99.90;;;;;;5009657;28;20050;-71
2023/11/07 00:24:50;;;;;;;28.10;24.30;;;10.40;99.90;;;;;;5012975;28;20053;-71
2023/11/07 00:27:18;;;;;;;29.65;25.48;;;10.30;99.90;;;;;;5012769;28;20425;-71
2023/11/07 00:29:47;;;;;;;35.95;28.65;;;10.30;99.90;;;;;;5012704;28;20037;-71
2023/11/07 00:32:14;;;;;;;28.88;25.90;;;10.30;99.90;;;;;;5001261;28;20042;-72
2023/11/07 00:34:40;;;;;;;28.35;25.08;;;10.20;99.90;;;;;;4991246;28;20026;-72
2023/11/07 00:37:06;;;;;;;32.45;29.13;;;10.30;99.90;;;;;;5004428;28;20048;-71
2023/11/07 00:39:32;;;;;;;32.17;28.38;;;10.30;99.90;;;;;;5013059;28;20041;-71
2023/11/07 00:41:58;;;;;;;27.17;24.85;;;10.30;99.90;;;;;;5012631;28;20030;-72
2023/11/07 00:44:24;;;;;;;28.48;25.90;;;10.30;99.90;;;;;;5012793;28;20381;-72
2023/11/07 00:46:50;;;;;;;26.25;23.67;;;10.30;99.90;;;;;;5011691;28;20045;-71
2023/11/07 00:49:17;;;;;;;27.75;25.40;;;10.30;99.90;;;;;;5012896;28;20053;-71
2023/11/07 00:51:44;;;;;;;26.15;23.98;;;10.30;99.90;;;;;;4998842;28;20033;-72
2023/11/07 00:54:11;;;;;;;30.65;27.80;;;10.20;99.90;;;;;;4984011;28;20042;-71
2023/11/07 00:56:37;;;;;;;28.40;26.15;;;10.30;99.90;;;;;;4993379;28;20042;-72
2023/11/07 00:59:03;;;;;;;28.33;26.10;;;10.20;99.90;;;;;;4992853;28;20027;-71
2023/11/07 01:01:31;;;;;;;27.00;24.63;;;10.20;99.90;;;;;;4991177;28;20045;-71
2023/11/07 01:04:00;;;;;;;25.33;23.08;;;10.20;99.90;;;;;;4993346;28;20038;-72
2023/11/07 01:06:26;;;;;;;24.40;21.15;;;10.20;99.90;;;;;;4992660;28;20050;-72
2023/11/07 01:08:53;;;;;;;25.05;22.85;;;10.10;99.90;;;;;;4980473;28;20403;-72
2023/11/07 01:11:19;;;;;;;27.95;25.48;;;10.10;99.90;;;;;;4990927;28;20049;-72
2023/11/07 01:13:45;;;;;;;30.83;27.98;;;10.10;99.90;;;;;;5012260;28;20034;-71
2023/11/07 01:16:11;;;;;;;24.17;22.05;;;10.10;99.90;;;;;;5011650;28;20604;-71
2023/11/07 01:18:38;;;;;;;24.50;22.13;;;10.10;99.90;;;;;;5012644;28;20022;-71
2023/11/07 01:21:04;;;;;;;32.08;29.63;;;10.10;99.90;;;;;;5012055;28;20037;-71
2023/11/07 01:23:30;;;;;;;31.08;28.48;;;10.10;99.90;;;;;;5012272;28;20390;-71
2023/11/07 01:25:56;;;;;;;28.58;26.10;;;10.00;99.90;;;;;;4986685;28;20109;-71
2023/11/07 01:28:23;;;;;;;25.73;23.60;;;10.00;99.90;;;;;;5012044;28;20034;-72
2023/11/07 01:30:49;;;;;;;26.75;24.63;;;10.00;99.90;;;;;;5015314;28;20385;-71
2023/11/07 01:33:16;;;;;;;26.63;24.55;;;10.00;99.90;;;;;;4997386;28;20037;-72
2023/11/07 01:35:42;;;;;;;27.48;25.05;;;10.00;99.90;;;;;;4996491;28;20364;-71
2023/11/07 01:38:09;;;;;;;21.90;19.75;;;10.00;99.90;;;;;;4997054;28;20054;-71
2023/11/07 01:40:35;;;;;;;29.23;26.40;;;10.00;99.90;;;;;;4995837;28;20037;-72
2023/11/07 01:43:14;;;;;;;27.48;25.02;;;10.00;99.90;;;;;;4995233;28;20039;-71
2023/11/07 01:45:40;;;;;;;26.48;24.08;;;9.90;99.90;;;;;;4995870;28;20034;-71
2023/11/07 01:48:22;;;;;;;27.83;25.65;;;9.90;99.90;;;;;;4996705;28;20479;-71
2023/11/07 01:50:48;;;;;;;26.50;24.63;;;9.90;99.90;;;;;;4996284;28;20018;-71
2023/11/07 01:53:14;;;;;;;30.63;27.73;;;10.00;99.90;;;;;;4996440;28;20037;-72
2023/11/07 01:55:41;;;;;;;27.45;24.85;;;10.00;99.90;;;;;;4996114;28;20466;-72
2023/11/07 01:58:07;;;;;;;25.15;23.23;;;10.00;99.90;;;;;;4980648;28;20043;-71
2023/11/07 02:00:33;;;;;;;24.15;22.40;;;10.00;99.90;;;;;;4981473;28;20038;-72
2023/11/07 02:02:59;;;;;;;25.02;22.95;;;9.90;99.90;;;;;;5014690;28;20381;-72
2023/11/07 02:05:25;;;;;;;26.00;24.20;;;9.90;99.90;;;;;;5015512;28;20030;-72
2023/11/07 02:07:52;;;;;;;24.98;22.83;;;9.90;99.90;;;;;;5014571;28;20061;-72
2023/11/07 02:10:19;;;;;;;26.30;24.50;;;9.90;99.90;;;;;;5015412;28;20026;-71
2023/11/07 02:12:45;;;;;;;25.00;22.60;;;9.90;99.90;;;;;;5013411;28;20033;-72
2023/11/07 02:15:19;;;;;;;25.17;23.17;;;9.80;99.90;;;;;;4993765;28;20038;-72
2023/11/07 02:17:45;;;;;;;24.35;22.60;;;9.80;99.90;;;;;;4996073;28;20041;-71
2023/11/07 02:20:14;;;;;;;25.48;23.42;;;9.80;99.90;;;;;;4995741;28;20029;-71
2023/11/07 02:22:47;;;;;;;24.02;22.13;;;9.70;99.90;;;;;;4994791;28;20031;-71
2023/11/07 02:25:14;;;;;;;24.65;22.30;;;9.70;99.90;;;;;;4995362;28;20050;-72
2023/11/07 02:27:43;;;;;;;25.77;23.75;;;9.80;99.90;;;;;;4995405;28;20049;-71
2023/11/07 02:30:13;;;;;;;27.92;25.83;;;9.80;99.90;;;;;;4994436;28;20023;-71
2023/11/07 02:32:39;;;;;;;27.77;25.65;;;9.70;99.90;;;;;;4990281;28;20490;-71
2023/11/07 02:35:06;;;;;;;22.92;20.85;;;9.70;99.90;;;;;;4995532;28;20036;-72
2023/11/07 02:37:33;;;;;;;21.92;20.10;;;9.70;99.90;;;;;;5013485;28;20052;-72
2023/11/07 02:39:59;;;;;;;21.38;19.65;;;9.70;99.90;;;;;;5014868;28;20046;-72
2023/11/07 02:42:29;;;;;;;23.42;21.60;;;9.70;99.90;;;;;;5007846;28;20033;-72
2023/11/07 02:44:56;;;;;;;24.77;22.48;;;9.70;99.90;;;;;;4976318;28;20039;-71
2023/11/07 02:47:22;;;;;;;22.17;20.48;;;9.70;99.90;;;;;;5010606;28;20045;-72
2023/11/07 02:49:48;;;;;;;21.10;19.33;;;9.70;99.90;;;;;;5014980;28;20375;-72
2023/11/07 02:52:14;;;;;;;21.15;19.45;;;9.70;99.90;;;;;;5014937;28;20394;-71
2023/11/07 02:54:40;;;;;;;21.48;19.67;;;9.70;99.90;;;;;;5015109;28;20041;-72
2023/11/07 02:57:07;;;;;;;22.90;21.30;;;9.70;99.90;;;;;;5014057;28;20037;-72
2023/11/07 02:59:33;;;;;;;21.85;20.35;;;9.70;99.90;;;;;;5004281;28;20030;-72
2023/11/07 03:02:00;;;;;;;24.38;22.50;;;9.70;99.90;;;;;;4994466;28;20034;-72
2023/11/07 03:04:26;;;;;;;26.60;24.55;;;9.60;99.90;;;;;;4995148;28;20038;-72
2023/11/07 03:06:53;;;;;;;24.98;23.23;;;9.70;99.90;;;;;;4994687;28;20049;-72
2023/11/07 03:09:20;;;;;;;24.85;22.95;;;9.70;99.90;;;;;;4995551;28;20047;-72
2023/11/07 03:11:46;;;;;;;25.10;23.20;;;9.70;99.90;;;;;;4994440;28;20762;-72
2023/11/07 03:14:12;;;;;;;30.70;28.42;;;9.60;99.90;;;;;;4993695;28;20030;-72
2023/11/07 03:16:38;;;;;;;33.13;30.67;;;9.60;99.90;;;;;;4994024;28;20035;-72
2023/11/07 03:19:07;;;;;;;26.30;24.33;;;9.60;99.90;;;;;;4993414;28;20038;-72
2023/11/07 03:21:34;;;;;;;26.35;24.02;;;9.50;99.90;;;;;;4994649;28;20034;-71
2023/11/07 03:24:01;;;;;;;26.10;24.15;;;9.50;99.90;;;;;;4993293;28;20054;-71
2023/11/07 03:26:27;;;;;;;26.65;24.35;;;9.50;99.90;;;;;;4994501;28;20046;-71
2023/11/07 03:28:53;;;;;;;24.33;22.02;;;9.40;99.90;;;;;;4993650;28;20053;-71
2023/11/07 03:31:19;;;;;;;21.77;20.05;;;9.40;99.90;;;;;;4993988;28;20390;-71
2023/11/07 03:33:46;;;;;;;19.65;18.10;;;9.40;99.90;;;;;;4994637;28;20458;-72
2023/11/07 03:36:15;;;;;;;20.65;18.95;;;9.40;99.90;;;;;;4991800;28;20046;-71
2023/11/07 03:38:43;;;;;;;21.35;19.70;;;9.40;99.90;;;;;;4993219;28;20030;-71
2023/11/07 03:41:10;;;;;;;21.05;19.27;;;9.40;99.90;;;;;;4994593;28;20051;-72
2023/11/07 03:43:36;;;;;;;20.88;19.08;;;9.40;99.90;;;;;;4994583;28;20050;-72
2023/11/07 03:46:02;;;;;;;19.50;17.85;;;9.40;99.90;;;;;;4993834;28;20034;-71
2023/11/07 03:48:29;;;;;;;21.27;19.55;;;9.40;99.90;;;;;;4994406;28;20065;-72
2023/11/07 03:50:55;;;;;;;23.63;22.00;;;9.40;99.90;;;;;;4994046;28;20038;-71
2023/11/07 03:53:21;;;;;;;21.98;20.48;;;9.40;99.90;;;;;;4992455;28;20046;-72
2023/11/07 03:55:48;;;;;;;20.77;18.92;;;9.40;99.90;;;;;;4993851;28;20037;-72
2023/11/07 03:58:15;;;;;;;20.20;18.45;;;9.40;99.90;;;;;;4994286;28;20474;-72
2023/11/07 04:00:41;;;;;;;19.65;18.17;;;9.40;99.90;;;;;;4993619;28;20041;-71
2023/11/07 04:03:07;;;;;;;19.48;17.95;;;9.40;99.90;;;;;;4994006;28;20045;-71
2023/11/07 04:05:33;;;;;;;24.65;22.38;;;9.40;99.90;;;;;;4993900;28;20043;-72
2023/11/07 04:07:59;;;;;;;34.67;28.08;;;9.50;99.90;;;;;;4993621;28;20457;-72
2023/11/07 04:10:25;;;;;;;82.68;47.58;;;9.50;99.90;;;;;;4993693;28;20045;-72
2023/11/07 04:12:51;;;;;;;47.70;36.65;;;9.50;99.90;;;;;;4993107;28;20043;-71
2023/11/07 04:15:18;;;;;;;52.03;43.53;;;9.50;99.90;;;;;;4993127;28;20045;-71
2023/11/07 04:17:47;;;;;;;31.67;28.73;;;9.50;99.90;;;;;;4985141;28;20039;-72
2023/11/07 04:20:13;;;;;;;29.73;26.95;;;9.40;99.90;;;;;;4975103;28;20047;-71
2023/11/07 04:22:40;;;;;;;27.55;25.15;;;9.50;99.90;;;;;;5013223;28;20038;-72
2023/11/07 04:25:06;;;;;;;25.55;23.52;;;9.50;99.90;;;;;;5011698;28;20053;-72
2023/11/07 04:27:34;;;;;;;24.23;21.98;;;9.40;99.90;;;;;;5012842;28;20054;-71
2023/11/07 04:30:02;;;;;;;28.58;25.80;;;9.40;99.90;;;;;;5013395;28;20034;-72
2023/11/07 04:32:29;;;;;;;27.38;24.75;;;9.40;99.90;;;;;;4999227;28;20043;-72
2023/11/07 04:34:55;;;;;;;23.17;21.25;;;9.40;99.90;;;;;;4992405;28;20061;-72
2023/11/07 04:37:21;;;;;;;23.10;21.52;;;9.40;99.90;;;;;;4992283;28;20030;-72
2023/11/07 04:39:48;;;;;;;23.30;21.25;;;9.30;99.90;;;;;;4993492;28;20038;-71
2023/11/07 04:42:14;;;;;;;23.30;21.13;;;9.30;99.90;;;;;;4993257;28;20066;-71
2023/11/07 04:44:41;;;;;;;23.55;21.42;;;9.20;99.90;;;;;;4993281;28;20027;-72
2023/11/07 04:47:07;;;;;;;33.63;27.55;;;9.20;99.90;;;;;;4992693;28;20098;-72
2023/11/07 04:49:33;;;;;;;31.38;28.13;;;9.20;99.90;;;;;;4993269;28;20136;-71
2023/11/07 04:51:59;;;;;;;29.42;26.40;;;9.30;99.90;;;;;;4992934;28;20507;-72
2023/11/07 04:54:25;;;;;;;25.83;23.33;;;9.20;99.90;;;;;;4993108;28;20038;-72
2023/11/07 04:56:54;;;;;;;26.73;24.20;;;9.30;99.90;;;;;;4992911;28;20049;-72
2023/11/07 04:59:23;;;;;;;23.70;21.50;;;9.30;99.90;;;;;;4992542;28;20030;-72
2023/11/07 05:01:50;;;;;;;28.58;25.52;;;9.30;99.90;;;;;;4992335;28;20054;-72
2023/11/07 05:04:17;;;;;;;24.50;21.95;;;9.30;99.90;;;;;;4976225;28;20070;-72
2023/11/07 05:06:43;;;;;;;35.38;31.00;;;9.30;99.90;;;;;;4998570;28;20045;-72
2023/11/07 05:09:12;;;;;;;50.25;35.67;;;9.30;99.90;;;;;;4980939;28;20391;-72
2023/11/07 05:11:43;;;;;;;45.95;34.08;;;9.30;99.90;;;;;;4992698;28;20502;-72
2023/11/07 05:14:09;;;;;;;39.47;33.33;;;9.30;99.90;;;;;;4991626;28;20491;-71
2023/11/07 05:16:36;;;;;;;37.13;31.30;;;9.20;99.90;;;;;;4990221;28;20390;-72
2023/11/07 05:19:03;;;;;;;90.70;50.22;;;9.30;99.90;;;;;;4991214;28;20042;-71
2023/11/07 05:21:29;;;;;;;84.10;40.17;;;9.20;99.90;;;;;;4990815;28;20398;-71
2023/11/07 05:23:55;;;;;;;82.25;28.50;;;9.30;99.90;;;;;;4992743;28;20055;-72
2023/11/07 05:26:22;;;;;;;30.92;28.25;;;9.40;99.90;;;;;;4990793;28;20037;-72
2023/11/07 05:28:49;;;;;;;30.27;27.65;;;9.40;99.90;;;;;;4973000;28;20411;-72
2023/11/07 05:31:16;;;;;;;842.15;76.43;;;9.40;99.90;;;;;;4987481;28;20509;-72
2023/11/07 05:33:45;;;;;;;30.92;28.25;;;9.40;99.90;;;;;;4991228;28;20035;-72
2023/11/07 05:36:15;;;;;;;25.92;24.02;;;9.40;99.90;;;;;;4987502;28;20067;-72
2023/11/07 05:38:45;;;;;;;48.30;42.25;;;9.30;99.90;;;;;;5003071;28;20046;-72
2023/11/07 05:41:11;;;;;;;146.43;99.28;;;9.20;99.90;;;;;;4990995;28;20050;-71
2023/11/07 05:43:39;;;;;;;39.50;36.08;;;9.20;99.90;;;;;;4992503;28;20039;-71
2023/11/07 05:46:05;;;;;;;38.85;34.25;;;9.20;99.90;;;;;;4990637;28;20409;-71
2023/11/07 05:48:31;;;;;;;47.38;42.65;;;9.20;99.90;;;;;;4992736;28;20405;-71
2023/11/07 05:51:00;;;;;;;42.13;38.22;;;9.10;99.90;;;;;;4991917;28;20030;-71
2023/11/07 05:53:27;;;;;;;47.45;40.70;;;9.00;99.90;;;;;;4987751;28;20043;-72
2023/11/07 05:55:53;;;;;;;38.08;34.72;;;9.00;99.90;;;;;;4982189;28;20466;-71
2023/11/07 05:58:20;;;;;;;33.45;31.02;;;9.00;99.90;;;;;;4971875;28;20058;-71
2023/11/07 06:00:46;;;;;;;29.70;27.13;;;9.00;99.90;;;;;;4982475;28;20041;-72
2023/11/07 06:03:15;;;;;;;52.72;40.58;;;9.00;99.90;;;;;;4998849;28;20047;-72
2023/11/07 06:05:41;;;;;;;43.10;34.03;;;8.90;99.90;;;;;;4990857;28;20037;-71
2023/11/07 06:08:08;;;;;;;47.67;33.65;;;8.90;99.90;;;;;;4991102;28;20045;-71
2023/11/07 06:10:34;;;;;;;23.98;20.23;;;8.90;99.90;;;;;;4979280;28;20026;-72
2023/11/07 06:13:04;;;;;;;25.98;23.27;;;9.00;99.90;;;;;;5002869;28;20029;-71
2023/11/07 06:15:31;;;;;;;24.42;21.95;;;9.00;99.90;;;;;;4992186;28;20038;-72
2023/11/07 06:17:58;;;;;;;32.13;28.05;;;9.00;99.90;;;;;;4996108;28;20034;-71
2023/11/07 06:20:24;;;;;;;27.40;23.77;;;9.00;99.90;;;;;;4995259;28;20030;-72
2023/11/07 06:22:53;;;;;;;400.30;46.75;;;9.00;99.90;;;;;;4995827;28;20041;-71
2023/11/07 06:25:19;;;;;;;29.05;26.10;;;9.00;99.90;;;;;;4994159;28;20054;-72
2023/11/07 06:27:47;;;;;;;32.58;29.25;;;9.00;99.90;;;;;;4995963;28;20074;-71
2023/11/07 06:30:15;;;;;;;31.45;28.52;;;8.90;99.90;;;;;;4995154;28;20042;-71
2023/11/07 06:32:41;;;;;;;28.50;25.70;;;9.00;99.90;;;;;;4994266;28;20529;-71
2023/11/07 06:35:08;;;;;;;37.08;33.58;;;9.00;99.90;;;;;;4994191;28;20034;-72
2023/11/07 06:37:35;;;;;;;30.05;26.85;;;9.00;99.90;;;;;;4995610;28;20475;-72
2023/11/07 06:40:07;;;;;;;31.40;27.38;;;9.00;99.90;;;;;;4984709;28;20042;-72
2023/11/07 06:42:36;;;;;;;25.38;23.05;;;8.90;99.90;;;;;;4992701;28;20050;-71
2023/11/07 06:45:05;;;;;;;30.70;27.67;;;8.90;99.90;;;;;;4994658;28;20029;-69
2023/11/07 06:47:31;;;;;;;28.83;25.90;;;8.90;99.90;;;;;;4987355;28;20035;-71
2023/11/07 06:49:57;;;;;;;27.75;24.98;;;8.90;99.90;;;;;;4975414;28;20035;-72
2023/11/07 06:52:24;;;;;;;29.63;26.95;;;8.90;99.90;;;;;;4976258;28;20031;-71
2023/11/07 06:54:50;;;;;;;32.63;29.40;;;8.90;99.90;;;;;;4991881;28;20026;-71
2023/11/07 06:57:16;;;;;;;27.95;25.42;;;9.00;99.90;;;;;;4995236;28;20030;-71
2023/11/07 06:59:42;;;;;;;27.80;25.35;;;8.90;99.90;;;;;;4995241;28;20026;-71
2023/11/07 07:02:09;;;;;;;26.65;23.75;;;8.90;99.90;;;;;;4994430;28;20402;-72
2023/11/07 07:04:35;;;;;;;28.20;25.92;;;9.00;99.90;;;;;;4995338;28;20050;-71
2023/11/07 07:07:02;;;;;;;25.80;23.67;;;8.90;99.90;;;;;;4977677;28;20019;-72
2023/11/07 07:09:28;;;;;;;299.10;51.05;;;8.90;99.90;;;;;;4976898;28;20065;-71
2023/11/07 07:11:54;;;;;;;29.42;26.52;;;8.90;99.90;;;;;;4975340;28;20031;-71
2023/11/07 07:14:20;;;;;;;31.38;28.05;;;9.00;99.90;;;;;;4975452;28;20031;-71
2023/11/07 07:16:46;;;;;;;30.05;27.05;;;8.90;99.90;;;;;;4974828;28;20503;-71
2023/11/07 07:19:17;;;;;;;36.53;32.15;;;8.90;99.90;;;;;;4975333;28;20041;-72
2023/11/07 07:21:44;;;;;;;36.42;32.63;;;8.90;99.90;;;;;;4988205;28;20065;-71
2023/11/07 07:24:21;;;;;;;66.05;38.78;;;8.80;99.90;;;;;;4978899;28;20046;-71
2023/11/07 07:26:47;;;;;;;43.35;32.53;;;8.90;99.90;;;;;;4993710;28;20018;-71
2023/11/07 07:29:14;;;;;;;40.90;34.38;;;8.90;99.90;;;;;;4985897;28;20061;-72
2023/11/07 07:31:41;;;;;;;34.17;29.65;;;8.90;99.90;;;;;;4988744;28;20101;-72
2023/11/07 07:34:07;;;;;;;34.25;30.88;;;8.90;99.90;;;;;;4976407;28;20051;-72
2023/11/07 07:36:43;;;;;;;32.03;29.00;;;8.90;99.90;;;;;;4975530;28;20042;-71
2023/11/07 07:39:27;;;;;;;27.13;24.55;;;8.90;99.90;;;;;;4993618;28;20038;-71
2023/11/07 07:41:57;;;;;;;55.13;42.47;;;8.90;99.90;;;;;;4991914;28;20378;-71
2023/11/07 07:44:26;;;;;;;28.23;25.35;;;9.00;99.90;;;;;;4983169;28;20415;-71
2023/11/07 07:46:53;;;;;;;26.98;24.20;;;9.00;99.90;;;;;;4992972;28;20046;-71
2023/11/07 07:49:23;;;;;;;31.73;28.50;;;9.00;99.90;;;;;;4993494;28;20042;-71
2023/11/07 07:51:53;;;;;;;27.75;24.88;;;9.10;99.90;;;;;;4991896;28;20054;-72
2023/11/07 07:54:22;;;;;;;22.80;20.50;;;9.10;99.90;;;;;;4985742;28;20046;-71
2023/11/07 07:56:51;;;;;;;23.17;21.27;;;9.10;99.90;;;;;;4986221;28;20114;-72
2023/11/07 07:59:22;;;;;;;25.58;23.02;;;9.20;99.90;;;;;;4993504;28;20022;-73
2023/11/07 08:02:06;;;;;;;23.90;21.73;;;9.30;99.90;;;;;;4992889;28;20463;-72
2023/11/07 08:04:32;;;;;;;24.58;22.25;;;9.30;99.90;;;;;;4993709;28;20042;-72
2023/11/07 08:06:58;;;;;;;23.88;21.98;;;9.30;99.90;;;;;;4993405;28;20034;-71
2023/11/07 08:09:24;;;;;;;25.00;20.70;;;9.30;99.90;;;;;;4992343;28;20045;-72
2023/11/07 08:12:00;;;;;;;22.70;20.88;;;9.40;99.90;;;;;;4993439;28;20506;-71
2023/11/07 08:14:28;;;;;;;24.02;21.90;;;9.40;99.90;;;;;;4973109;28;20058;-71
2023/11/07 08:16:54;;;;;;;30.92;27.88;;;9.50;99.90;;;;;;5000812;28;20390;-71
2023/11/07 08:19:22;;;;;;;36.53;32.65;;;9.50;99.90;;;;;;4984027;28;20038;-72
2023/11/07 08:21:51;;;;;;;39.70;35.65;;;9.50;99.90;;;;;;4992061;28;20026;-71
2023/11/07 08:24:17;;;;;;;55.05;38.25;;;9.60;99.90;;;;;;4974871;28;20042;-71
2023/11/07 08:26:44;;;;;;;40.40;33.17;;;9.60;99.90;;;;;;4978073;28;20070;-73
2023/11/07 08:29:11;;;;;;;33.83;30.63;;;9.60;99.90;;;;;;4985367;28;20050;-72
2023/11/07 08:31:37;;;;;;;37.80;33.40;;;9.60;99.90;;;;;;4989630;28;20043;-73
2023/11/07 08:34:10;;;;;;;36.25;30.83;;;9.70;99.90;;;;;;4981169;28;20484;-72
2023/11/07 08:36:39;;;;;;;29.58;26.77;;;9.80;99.90;;;;;;4992814;28;20038;-73
2023/11/07 08:39:16;;;;;;;27.73;25.17;;;9.80;99.90;;;;;;4990344;28;20042;-73
2023/11/07 08:41:44;;;;;;;30.80;28.13;;;9.80;99.90;;;;;;4990324;28;20042;-73
2023/11/07 08:44:11;;;;;;;27.25;25.20;;;10.00;99.90;;;;;;4973303;28;20046;-72
2023/11/07 08:46:37;;;;;;;27.98;25.38;;;10.00;99.90;;;;;;4984048;28;20018;-72
2023/11/07 08:49:04;;;;;;;27.70;25.08;;;10.00;99.90;;;;;;4992859;28;20046;-72
2023/11/07 08:51:30;;;;;;;28.10;25.52;;;10.00;99.90;;;;;;4992134;28;20042;-71
2023/11/07 08:53:56;;;;;;;32.45;29.65;;;10.10;99.90;;;;;;4993018;28;20395;-73
2023/11/07 08:56:24;;;;;;;29.90;27.75;;;10.10;99.90;;;;;;4992275;28;20046;-72
2023/11/07 08:58:51;;;;;;;31.65;29.25;;;10.20;99.90;;;;;;4992946;28;20054;-72
2023/11/07 09:01:18;;;;;;;41.65;38.17;;;10.20;99.90;;;;;;4992153;28;20042;-72
2023/11/07 09:03:45;;;;;;;36.38;33.78;;;10.30;99.90;;;;;;4984038;28;20045;-72
2023/11/07 09:06:11;;;;;;;41.97;38.83;;;10.30;99.90;;;;;;4981017;28;20055;-72
2023/11/07 09:08:37;;;;;;;40.92;37.70;;;10.30;99.90;;;;;;4992641;28;20410;-73
2023/11/07 09:11:04;;;;;;;45.25;41.40;;;10.40;99.90;;;;;;4989077;28;20023;-74
2023/11/07 09:13:30;;;;;;;35.42;33.00;;;10.40;99.90;;;;;;4979542;28;20502;-73
2023/11/07 09:15:59;;;;;;;37.20;34.20;;;10.50;99.90;;;;;;4991623;28;20368;-73
2023/11/07 09:18:28;;;;;;;41.72;38.42;;;10.60;99.90;;;;;;4992824;28;20026;-74
2023/11/07 09:20:55;;;;;;;47.25;43.42;;;10.70;99.90;;;;;;5005499;28;20390;-76
2023/11/07 09:23:22;;;;;;;41.63;38.30;;;10.90;99.90;;;;;;5005663;28;20065;-73
2023/11/07 09:25:48;;;;;;;33.85;31.08;;;11.00;99.90;;;;;;4990831;28;20046;-73
2023/11/07 09:28:14;;;;;;;39.28;36.22;;;11.10;99.90;;;;;;4992219;28;20042;-73
2023/11/07 09:30:40;;;;;;;29.15;26.77;;;11.20;99.90;;;;;;4986656;28;20038;-71
2023/11/07 09:33:06;;;;;;;30.48;28.15;;;11.30;99.90;;;;;;4991002;28;20027;-71
2023/11/07 09:35:33;;;;;;;33.50;30.88;;;11.30;99.90;;;;;;4977946;28;20049;-70
2023/11/07 09:37:59;;;;;;;30.40;27.88;;;11.40;99.90;;;;;;5011876;28;20026;-69
2023/11/07 09:40:25;;;;;;;28.88;26.98;;;11.40;99.90;;;;;;4999737;28;20035;-72
2023/11/07 09:42:52;;;;;;;40.28;37.33;;;11.40;99.90;;;;;;4990792;28;20031;-71
2023/11/07 09:45:18;;;;;;;46.22;42.97;;;11.40;99.90;;;;;;4991573;28;20037;-71
2023/11/07 09:47:48;;;;;;;49.63;46.05;;;11.50;99.90;;;;;;4991464;28;20395;-70
2023/11/07 09:50:16;;;;;;;45.45;42.55;;;11.60;99.90;;;;;;4984803;28;20046;-70
2023/11/07 09:52:46;;;;;;;33.42;30.42;;;11.70;99.90;;;;;;5014780;28;20026;-70
2023/11/07 09:55:15;;;;;;;35.60;32.92;;;11.70;99.90;;;;;;5015353;28;20045;-71
2023/11/07 09:57:58;;;;;;;36.35;34.00;;;11.80;99.90;;;;;;4976374;28;20035;-70
2023/11/07 10:00:25;;;;;;;39.17;35.90;;;11.80;99.90;;;;;;4977782;28;20050;-70
2023/11/07 10:02:52;;;;;;;29.45;27.00;;;11.80;99.90;;;;;;5015929;28;20046;-70
2023/11/07 10:05:20;;;;;;;33.75;31.42;;;11.80;99.90;;;;;;5003868;28;20047;-71
2023/11/07 10:07:49;;;;;;;34.10;31.05;;;11.80;99.90;;;;;;4987922;28;20042;-71
2023/11/07 10:10:16;;;;;;;31.17;28.75;;;11.90;99.90;;;;;;4993810;28;20398;-70
2023/11/07 10:12:43;;;;;;;33.25;30.60;;;11.90;99.90;;;;;;4991338;28;20035;-70
2023/11/07 10:15:17;;;;;;;37.08;34.42;;;11.90;99.90;;;;;;4986331;28;20042;-70
2023/11/07 10:17:58;;;;;;;33.20;30.60;;;12.00;99.90;;;;;;4987015;28;20504;-70
2023/11/07 10:20:25;;;;;;;38.63;35.42;;;12.10;99.90;;;;;;4992371;28;20042;-70
2023/11/07 10:22:51;;;;;;;41.85;38.67;;;12.10;99.90;;;;;;4975155;28;20035;-69
2023/11/07 10:25:33;;;;;;;54.75;51.40;;;12.20;99.90;;;;;;4975967;28;20054;-70
2023/11/07 10:28:06;;;;;;;62.67;58.97;;;12.30;99.90;;;;;;4994632;28;20053;-70
2023/11/07 10:30:46;;;;;;;63.45;59.30;;;12.40;99.90;;;;;;4993341;28;20049;-70
2023/11/07 10:33:23;;;;;;;76.75;71.93;;;12.50;99.90;;;;;;4995405;28;20056;-70
2023/11/07 10:35:56;;;;;;;70.03;65.97;;;12.60;99.90;;;;;;4994150;28;20597;-70
2023/11/07 10:38:23;;;;;;;75.65;71.57;;;12.60;99.90;;;;;;4978520;28;20049;-70
2023/11/07 10:40:49;;;;;;;84.15;79.38;;;12.70;99.90;;;;;;4993112;28;20034;-71
2023/11/07 10:43:34;;;;;;;86.38;81.80;;;12.80;99.90;;;;;;4984056;28;20484;-70
2023/11/07 10:46:10;;;;;;;84.50;79.45;;;12.80;99.90;;;;;;4971570;28;20038;-70
2023/11/07 10:48:40;;;;;;;77.30;72.72;;;12.80;99.90;;;;;;4986668;28;20479;-70
2023/11/07 10:51:09;;;;;;;90.05;85.15;;;12.90;99.90;;;;;;4988809;28;20046;-70
2023/11/07 10:53:38;;;;;;;89.90;84.35;;;12.90;99.90;;;;;;4999136;28;20057;-70
2023/11/07 10:56:20;;;;;;;91.45;86.03;;;13.00;99.90;;;;;;4988494;28;20482;-70
2023/11/07 10:59:00;;;;;;;92.13;87.15;;;13.10;99.90;;;;;;4975636;28;20027;-70
2023/11/07 11:01:27;;;;;;;95.50;90.03;;;13.10;99.90;;;;;;4983693;28;20046;-71
2023/11/07 11:03:54;;;;;;;77.95;73.10;;;13.20;99.90;;;;;;4999990;28;20027;-70
2023/11/07 11:06:23;;;;;;;71.95;67.93;;;13.30;99.90;;;;;;4985807;28;20038;-71
2023/11/07 11:08:50;;;;;;;70.47;66.40;;;13.30;99.90;;;;;;4974567;28;20458;-70
2023/11/07 11:11:16;;;;;;;69.07;65.03;;;13.40;99.90;;;;;;4984059;28;20399;-70
2023/11/07 11:13:43;;;;;;;70.25;65.93;;;13.40;99.90;;;;;;4989374;28;20038;-71
2023/11/07 11:16:09;;;;;;;100.97;95.53;;;13.40;99.90;;;;;;5000540;28;20030;-70
2023/11/07 11:18:44;;;;;;;147.18;139.18;;;13.40;99.90;;;;;;4976567;28;20497;-70
2023/11/07 11:21:16;;;;;;;100.15;94.65;;;13.50;99.90;;;;;;4986098;28;20057;-70
2023/11/07 11:24:21;;;;;;;160.52;151.77;;;13.50;99.90;;;;;;4992386;28;20402;-70
2023/11/07 11:26:51;;;;;;;88.00;83.32;;;13.50;99.90;;;;;;4964685;28;20535;-70
2023/11/07 11:29:26;;;;;;;91.88;86.82;;;13.50;99.90;;;;;;4972741;28;20050;-70
2023/11/07 11:31:52;;;;;;;104.00;98.28;;;13.50;99.90;;;;;;4962370;28;20039;-71
2023/11/07 11:34:25;;;;;;;160.60;152.10;;;13.50;99.90;;;;;;4933911;29;20027;-70
2023/11/07 11:36:53;;;;;;;94.38;89.25;;;13.50;99.90;;;;;;4943396;29;20043;-73
2023/11/07 11:39:37;;;;;;;127.20;120.38;;;13.50;99.90;;;;;;4927871;29;20372;-70
2023/11/07 11:42:05;;;;;;;96.38;91.15;;;13.60;99.90;;;;;;4952795;28;20151;-70
2023/11/07 11:44:32;;;;;;;135.23;127.72;;;13.70;99.90;;;;;;4945668;29;20066;-70
2023/11/07 11:46:59;;;;;;;119.30;112.75;;;13.70;99.90;;;;;;4952011;28;20047;-70
2023/11/07 11:49:25;;;;;;;128.00;121.45;;;13.70;99.90;;;;;;4949420;29;20055;-70
2023/11/07 11:51:52;;;;;;;93.10;87.85;;;13.60;99.90;;;;;;4941455;28;20452;-70
2023/11/07 11:54:26;;;;;;;106.90;101.25;;;13.60;99.90;;;;;;4933518;29;20044;-70
2023/11/07 11:56:55;;;;;;;107.35;101.30;;;13.60;99.90;;;;;;4946316;28;20047;-70
2023/11/07 11:59:24;;;;;;;80.13;75.57;;;13.50;99.90;;;;;;4946183;29;20048;-70
2023/11/07 12:01:53;;;;;;;96.47;91.22;;;13.50;99.90;;;;;;4943841;28;20039;-70
2023/11/07 12:04:48;;;;;;;96.13;90.70;;;13.40;99.90;;;;;;4972353;28;20045;-70
2023/11/07 12:07:14;;;;;;;98.50;93.45;;;13.30;99.90;;;;;;4989733;28;20514;-70
2023/11/07 12:09:45;;;;;;;88.38;83.47;;;13.30;99.90;;;;;;4991638;28;20054;-70
2023/11/07 12:12:14;;;;;;;82.03;77.15;;;13.30;99.90;;;;;;4991246;28;20740;-69
2023/11/07 12:14:53;;;;;;;75.97;71.22;;;13.20;99.90;;;;;;4991636;28;20042;-70
2023/11/07 12:17:24;;;;;;;70.00;66.03;;;13.20;99.90;;;;;;4984316;28;20205;-70
2023/11/07 12:20:01;;;;;;;70.72;66.68;;;13.20;99.90;;;;;;4982967;28;20059;-70
2023/11/07 12:22:27;;;;;;;99.28;93.95;;;13.30;99.90;;;;;;4982892;28;22182;-70
2023/11/07 12:25:13;;;;;;;63.90;60.20;;;13.40;99.90;;;;;;4980614;28;20058;-70
2023/11/07 12:27:41;;;;;;;62.17;58.50;;;13.50;99.90;;;;;;4991291;28;20061;-70
2023/11/07 12:30:11;;;;;;;80.55;76.10;;;13.60;99.90;;;;;;4992587;28;20042;-70
2023/11/07 12:32:37;;;;;;;77.03;72.28;;;13.70;99.90;;;;;;4986995;28;20031;-70
2023/11/07 12:35:25;;;;;;;73.35;69.50;;;13.90;99.90;;;;;;4992595;28;20035;-70